createdAt,value
2022-11-13T00:01:50.958Z,1032.09
2022-11-13T00:11:28.051Z,1032.01
2022-11-13T00:30:40.620Z,1031.82
2022-11-13T00:40:17.415Z,1031.7
2022-11-13T00:49:54.076Z,1031.6
2022-11-13T00:59:30.222Z,1031.57
2022-11-13T01:09:07.152Z,1031.41
2022-11-13T01:18:44.268Z,1031.34
2022-11-13T01:28:21.235Z,1031.38
2022-11-13T01:37:57.779Z,1031.35
2022-11-13T01:47:34.629Z,1031.2
2022-11-13T01:57:11.296Z,1031.24
2022-11-13T02:06:48.136Z,1031.1
2022-11-13T02:16:24.883Z,1030.93
2022-11-13T02:26:01.792Z,1030.89
2022-11-13T02:35:38.523Z,1030.91
2022-11-13T02:45:14.970Z,1030.88
2022-11-13T02:54:51.344Z,1030.86
2022-11-13T03:04:38.532Z,1030.72
2022-11-13T03:14:04.537Z,1030.72
2022-11-13T03:23:41.247Z,1030.81
2022-11-13T03:33:17.542Z,1030.91
2022-11-13T03:42:54.042Z,1030.78
2022-11-13T03:52:30.881Z,1030.67
2022-11-13T04:02:07.488Z,1030.71
2022-11-13T04:11:43.713Z,1030.63
2022-11-13T04:21:20.808Z,1030.6
2022-11-13T04:30:57.118Z,1030.5
2022-11-13T04:40:34.049Z,1030.52
2022-11-13T04:50:10.547Z,1030.46
2022-11-13T04:59:47.491Z,1030.54
2022-11-13T05:09:24.088Z,1030.48
2022-11-13T05:28:37.320Z,1030.26
2022-11-13T05:38:13.989Z,1030.14
2022-11-13T05:47:50.687Z,1030.08
2022-11-13T05:57:27.319Z,1029.96
2022-11-13T06:07:03.678Z,1030.02
2022-11-13T06:16:40.518Z,1029.87
2022-11-13T06:26:16.844Z,1029.83
2022-11-13T06:35:53.852Z,1029.75
2022-11-13T06:45:30.778Z,1029.8
2022-11-13T06:55:06.657Z,1029.81
2022-11-13T07:04:43.252Z,1029.76
2022-11-13T07:14:20.105Z,1029.78
2022-11-13T07:23:56.600Z,1029.61
2022-11-13T07:33:33.615Z,1029.61
2022-11-13T07:43:10.926Z,1029.54
2022-11-13T07:52:47.687Z,1029.43
2022-11-13T08:02:26.621Z,1029.39
2022-11-13T08:12:01.669Z,1029.49
2022-11-13T08:21:38.331Z,1029.51
2022-11-13T08:31:15.896Z,1029.23
2022-11-13T08:40:53.129Z,1029.15
2022-11-13T08:50:30.791Z,1029
2022-11-13T09:00:07.594Z,1029
2022-11-13T09:19:21.628Z,1029.15
2022-11-13T09:28:57.925Z,1028.98
2022-11-13T09:57:49.206Z,1029.01
2022-11-13T10:07:26.932Z,1028.86
2022-11-13T10:17:05.573Z,1028.76
2022-11-13T10:26:43.438Z,1028.68
2022-11-13T10:36:20.977Z,1028.43
2022-11-13T10:45:59.006Z,1028.25
2022-11-13T10:55:36.406Z,1028.02
2022-11-13T11:05:14.374Z,1027.77
2022-11-13T11:14:52.157Z,1027.47
2022-11-13T11:24:30.985Z,1027.31
2022-11-13T11:34:09.060Z,1027.08
2022-11-13T11:43:47.581Z,1026.92
2022-11-13T11:53:25.395Z,1026.77
2022-11-13T12:03:03.477Z,1026.57
2022-11-13T12:12:40.053Z,1026.44
2022-11-13T12:22:13.445Z,1026.35
2022-11-13T12:31:52.152Z,1026.44
2022-11-13T12:41:27.363Z,1026.56
2022-11-13T13:01:12.347Z,1026.28
2022-11-13T13:10:58.755Z,1026.1
2022-11-13T13:20:38.762Z,1026.05
2022-11-13T13:30:17.145Z,1025.82
2022-11-13T13:39:49.369Z,1025.69
2022-11-13T14:08:14.648Z,1025.68
2022-11-13T14:17:44.598Z,1025.56
2022-11-13T14:27:16.186Z,1025.56
2022-11-13T14:36:51.012Z,1025.59
2022-11-13T14:46:26.254Z,1025.5
2022-11-13T15:05:38.128Z,1025.45
2022-11-13T15:15:14.764Z,1025.52
2022-11-13T15:24:50.637Z,1025.64
2022-11-13T15:34:27.123Z,1025.63
2022-11-13T15:44:03.446Z,1025.54
2022-11-13T15:53:39.435Z,1025.55
2022-11-13T16:03:15.757Z,1025.59
2022-11-13T16:12:52.444Z,1025.55
2022-11-13T16:22:28.656Z,1025.71
2022-11-13T16:41:41.254Z,1025.41
2022-11-13T16:51:18.162Z,1025.53
2022-11-13T17:00:58.947Z,1025.38
2022-11-13T17:20:08.563Z,1025.22
2022-11-13T17:29:45.020Z,1025.27
2022-11-13T17:39:21.763Z,1025.18
2022-11-13T17:48:58.269Z,1025.29
2022-11-13T17:58:34.758Z,1025.11
2022-11-13T18:08:11.542Z,1025.03
2022-11-13T18:17:48.512Z,1024.98
2022-11-13T18:27:24.836Z,1025
2022-11-13T18:37:01.805Z,1024.97
2022-11-13T18:46:38.567Z,1024.8
2022-11-13T18:56:15.396Z,1024.77
2022-11-13T19:05:52.448Z,1024.62
2022-11-13T19:15:29.267Z,1024.47
2022-11-13T19:25:05.844Z,1024.56
2022-11-13T19:34:46.357Z,1024.4
2022-11-13T19:44:19.807Z,1024.23
2022-11-13T19:53:56.672Z,1024.25
2022-11-13T20:03:32.969Z,1024.2
2022-11-13T20:13:09.664Z,1024.17
2022-11-13T20:22:46.057Z,1024.11
2022-11-13T20:32:23.119Z,1024.07
2022-11-13T20:41:59.903Z,1024.11
2022-11-13T20:51:36.505Z,1024.1
2022-11-13T21:01:13.022Z,1024.08
2022-11-13T21:10:49.976Z,1024.08
2022-11-13T21:20:26.606Z,1024.01
2022-11-13T21:30:03.338Z,1023.86
2022-11-13T21:39:39.812Z,1023.68
2022-11-13T21:49:16.858Z,1023.63
2022-11-13T22:08:30.988Z,1023.6
2022-11-13T22:18:07.147Z,1023.54
2022-11-13T22:27:44.006Z,1023.51
2022-11-13T22:37:20.787Z,1023.42
2022-11-13T22:46:57.391Z,1023.27
2022-11-13T22:56:34.210Z,1023.14
2022-11-13T23:06:11.037Z,1022.99
2022-11-13T23:15:47.319Z,1023
2022-11-13T23:25:24.390Z,1022.83
2022-11-13T23:35:01.063Z,1022.69
2022-11-13T23:44:37.655Z,1022.52
2022-11-13T23:54:14.329Z,1022.32
